LFBD/BOD METAR and TAF weather

Enter ICAO airport designator
Station Type Date Time Source
LFBD METAR 2021/06/24 05:30 UTC NOAA

LFBD 240530Z AUTO 02005KT 9999 OVC048 15/14 Q1022 TEMPO 3000 BR BKN006


Station Type Date Time Source
LFBD Decoded METAR 2021/06/24 05:30 UTC NOAA

Bordeaux / Merignac, France (LFBD) 44-50N 000-42W 61M
Jun 24, 2021 - 01:30 AM EDT / 2021.06.24 0530 UTC
Wind: from the NNE (020 degrees) at 6 MPH (5 KT):0
Visibility: greater than 7 mile(s):0
Sky conditions: overcast
Temperature: 59 F (15 C)
Dew Point: 57 F (14 C)
Relative Humidity: 93%
Pressure (altimeter): 30.18 in. Hg (1022 hPa)
ob: LFBD 240530Z AUTO 02005KT 9999 OVC048 15/14 Q1022 TEMPO 3000 BR BKN006
cycle: 5

Station Type Date Time Source
LFBD TAF 2021/06/24 06:21 UTC NOAA

TAF TAF LFBD 240500Z 2406/2512 31005KT 9999 BKN040 TX24/2414Z TN12/2504Z PROB30
TEMPO 2406/2407 3000 BR BKN006
TEMPO 2410/2416 SCT040TCU

Example: see airport list